createdAt,value
2022-10-02T00:16:19.820Z,88.77
2022-10-02T00:44:43.694Z,87.26
2022-10-02T01:13:03.172Z,87.72
2022-10-02T01:41:19.941Z,88.51
2022-10-02T02:09:43.139Z,89.24
2022-10-02T02:38:04.468Z,85.98
2022-10-02T03:06:23.830Z,81.55
2022-10-02T03:34:46.258Z,81.44
2022-10-02T04:03:04.135Z,81.83
2022-10-02T04:31:24.005Z,84.5
2022-10-02T04:59:34.160Z,92.37
2022-10-02T05:27:53.569Z,95.63
2022-10-02T05:56:09.377Z,97.94
2022-10-02T06:24:51.819Z,97.55
2022-10-02T06:53:47.431Z,96.95
2022-10-02T07:22:51.558Z,98.42
2022-10-02T07:51:57.480Z,88.81
2022-10-02T08:20:16.660Z,87.32
2022-10-02T08:48:32.236Z,87.95
2022-10-02T09:17:37.408Z,83.87
2022-10-02T09:46:36.598Z,78.64
2022-10-02T10:14:50.733Z,81.25
2022-10-02T10:43:09.169Z,87.98
2022-10-02T11:11:17.106Z,100
2022-10-02T11:39:41.319Z,100
2022-10-02T12:08:44.041Z,100
2022-10-02T12:37:27.459Z,100
2022-10-02T13:06:19.577Z,100
2022-10-02T13:35:18.143Z,100
2022-10-02T14:03:51.812Z,100
2022-10-02T14:32:10.236Z,100
2022-10-02T15:00:20.094Z,100
2022-10-02T15:29:28.544Z,100
2022-10-02T15:58:18.928Z,100
2022-10-02T16:27:04.385Z,100
2022-10-02T16:55:47.759Z,100
2022-10-02T17:23:59.143Z,100
2022-10-02T17:52:47.875Z,100
2022-10-02T18:21:50.281Z,100
2022-10-02T18:50:41.483Z,100
2022-10-02T19:19:37.965Z,100
2022-10-02T19:48:27.961Z,100
2022-10-02T20:17:22.789Z,100
2022-10-02T20:46:19.105Z,100
2022-10-02T21:14:41.055Z,100
2022-10-02T21:43:32.619Z,100
2022-10-02T22:12:32.782Z,100
2022-10-02T22:41:23.668Z,100
2022-10-02T23:10:24.983Z,100
2022-10-02T23:39:16.090Z,100
